Hafnia Crux — OUNI2 — position and weather

sailwx.info

Track history (hours):
 
Tides and Currents Weather Stations Pressure Air Temp Water Temp Dewpoint Dewpoint Depression Visibility Wind Speed Wind Dir Waves Ship Positions

Hafnia Crux

Last reported at 2018-Feb-09 00:30 UTC. Time now 2018-Feb-21 14:57 UTC.
Position N 01°14' E 103°55'.
Warning: this ship's position is 12 days out of date.

Length 183 m; draft 8.5 m.

Type: Ship. MMSI: 219398000.

Date/timePositionNaut miles runAvg speedWind from/ knotsBaromVisibWave heightAir tempDewpointWater temp
2018-Feb-09 00:30N 01°14' E 103°55'  
2018-Feb-03 06:23N 22°11' E 119°42'411.3
2018-Feb-03 06:00N 22°15' E 119°44'612.3
2018-Feb-03 05:30N 22°20' E 119°47'612.3
2018-Feb-03 04:58N 22°26' E 119°50'1211.9
2018-Feb-03 04:00N 22°38' E 119°52'612.9
2018-Feb-03 03:30N 22°44' E 119°53'5312.2
2018-Feb-02 23:07N 23°37' E 119°54'213.6
2018-Feb-02 23:00N 23°39' E 119°54'713.7
2018-Feb-02 22:28N 23°46' E 119°54'  
Track history (hours):
 
Tides and Currents Weather Stations Pressure Air Temp Water Temp Dewpoint Dewpoint Depression Visibility Wind Speed Wind Dir Waves Ship Positions

Hafnia Crux

Last reported at 2018-Feb-09 00:30 UTC. Time now 2018-Feb-21 14:57 UTC.
Position N 01°14' E 103°55'.
Warning: this ship's position is 12 days out of date.

Length 183 m; draft 8.5 m.

Type: Ship. MMSI: 219398000.

Date/timePositionNaut miles runAvg speedWind from/ knotsBaromVisibWave heightAir tempDewpointWater temp
2018-Feb-09 00:30N 01°14' E 103°55'  
2018-Feb-03 06:23N 22°11' E 119°42'411.3
2018-Feb-03 06:00N 22°15' E 119°44'612.3
2018-Feb-03 05:30N 22°20' E 119°47'612.3
2018-Feb-03 04:58N 22°26' E 119°50'1211.9
2018-Feb-03 04:00N 22°38' E 119°52'612.9
2018-Feb-03 03:30N 22°44' E 119°53'5312.2
2018-Feb-02 23:07N 23°37' E 119°54'213.6
2018-Feb-02 23:00N 23°39' E 119°54'713.7
2018-Feb-02 22:28N 23°46' E 119°54'  

Dump ship's entire track history